createdAt,value
2023-03-26T00:01:17.856Z,14.00
2023-03-26T00:03:47.404Z,14.53
2023-03-26T00:06:17.278Z,13.13
2023-03-26T00:08:45.858Z,14.60
2023-03-26T00:11:14.858Z,15.67
2023-03-26T00:13:44.047Z,14.70
2023-03-26T00:16:16.125Z,17.80
2023-03-26T00:18:43.786Z,17.77
2023-03-26T00:21:16.020Z,15.07
2023-03-26T00:23:43.354Z,9.60
2023-03-26T00:26:11.019Z,14.87
2023-03-26T00:28:40.689Z,18.70
2023-03-26T00:31:10.248Z,18.97
2023-03-26T00:33:40.925Z,15.90
2023-03-26T00:36:16.869Z,14.30
2023-03-26T00:38:45.133Z,14.07
2023-03-26T00:41:39.946Z,15.40
2023-03-26T00:44:06.623Z,18.90
2023-03-26T00:46:33.316Z,17.33
2023-03-26T00:49:00.716Z,13.90
2023-03-26T00:51:28.645Z,14.93
2023-03-26T00:53:56.293Z,16.67
2023-03-26T00:56:23.064Z,13.07
2023-03-26T00:58:53.087Z,14.80
2023-03-26T01:01:28.454Z,15.97
2023-03-26T01:04:08.205Z,20.27
2023-03-26T01:06:38.899Z,16.63
2023-03-26T01:09:14.581Z,14.40
2023-03-26T01:11:41.262Z,17.87
2023-03-26T01:14:26.986Z,19.67
2023-03-26T01:16:55.792Z,15.03
2023-03-26T01:19:41.317Z,13.30
2023-03-26T01:22:11.312Z,14.97
2023-03-26T01:24:39.289Z,13.83
2023-03-26T01:27:09.762Z,13.87
2023-03-26T01:29:37.733Z,14.17
2023-03-26T01:32:19.104Z,16.53
2023-03-26T01:35:12.586Z,14.93
2023-03-26T01:38:01.166Z,15.23
2023-03-26T01:40:43.161Z,19.30
2023-03-26T01:43:26.215Z,14.50
2023-03-26T01:45:53.780Z,13.87
2023-03-26T01:48:20.921Z,16.00
2023-03-26T01:50:49.191Z,20.30
2023-03-26T01:53:16.089Z,14.27
2023-03-26T01:56:47.788Z,14.73
2023-03-26T01:59:36.880Z,15.87
2023-03-26T02:02:26.819Z,18.07
2023-03-26T02:05:09.798Z,11.87
2023-03-26T02:07:51.316Z,15.40
2023-03-26T02:10:24.939Z,11.03
2023-03-26T02:12:51.964Z,11.60
2023-03-26T02:15:18.938Z,17.13
2023-03-26T02:17:47.183Z,11.60
2023-03-26T02:20:15.485Z,14.10
2023-03-26T02:22:46.101Z,15.67
2023-03-26T02:25:21.307Z,17.63
2023-03-26T02:27:49.809Z,13.80
2023-03-26T02:30:20.159Z,15.70
2023-03-26T02:32:46.879Z,14.80
2023-03-26T02:35:13.885Z,16.27
2023-03-26T02:37:42.273Z,12.97
2023-03-26T02:40:11.898Z,19.17
2023-03-26T02:42:39.335Z,17.67
2023-03-26T02:45:06.937Z,15.73
2023-03-26T02:47:33.974Z,14.70
2023-03-26T02:50:01.636Z,13.67
2023-03-26T02:52:28.338Z,15.07
2023-03-26T02:54:55.012Z,21.83
2023-03-26T02:57:22.570Z,16.47
2023-03-26T02:59:50.520Z,13.90
2023-03-26T03:02:18.495Z,13.63
2023-03-26T03:04:45.458Z,10.50
2023-03-26T03:07:14.657Z,13.83
2023-03-26T03:09:41.740Z,11.63
2023-03-26T03:12:08.521Z,10.63
2023-03-26T03:14:35.864Z,24.93
2023-03-26T03:17:02.723Z,10.67
2023-03-26T03:19:29.436Z,16.07
2023-03-26T03:21:56.394Z,13.33
2023-03-26T03:24:23.646Z,16.07
2023-03-26T03:26:50.519Z,17.03
2023-03-26T03:29:17.590Z,12.73
2023-03-26T03:31:44.324Z,13.60
2023-03-26T03:34:11.108Z,15.03
2023-03-26T03:36:38.708Z,17.90
2023-03-26T03:39:05.441Z,18.47
2023-03-26T03:41:32.219Z,13.73
2023-03-26T03:44:00.018Z,14.70
2023-03-26T03:46:26.859Z,15.50
2023-03-26T03:48:53.572Z,16.90
2023-03-26T03:51:20.439Z,10.30
2023-03-26T03:53:47.659Z,13.30
2023-03-26T03:56:14.950Z,13.53
2023-03-26T03:58:42.429Z,12.67
2023-03-26T04:01:09.285Z,11.70
2023-03-26T04:03:39.043Z,15.00
2023-03-26T04:06:11.258Z,17.53
2023-03-26T04:08:38.270Z,13.40
2023-03-26T04:11:05.206Z,13.67
2023-03-26T04:13:31.891Z,12.00
2023-03-26T04:15:58.864Z,8.57
2023-03-26T04:18:26.569Z,10.30
2023-03-26T04:20:55.869Z,10.30
2023-03-26T04:23:23.401Z,16.60
2023-03-26T04:25:53.906Z,12.87
2023-03-26T04:28:43.911Z,10.50
2023-03-26T04:31:15.875Z,12.37
2023-03-26T04:33:47.056Z,6.77
2023-03-26T04:36:16.162Z,9.80
2023-03-26T04:38:45.535Z,12.03
2023-03-26T04:41:13.006Z,13.23
2023-03-26T04:43:47.334Z,10.40
2023-03-26T04:46:14.678Z,9.43
2023-03-26T04:48:41.685Z,15.70
2023-03-26T04:51:10.274Z,7.63
2023-03-26T04:53:37.041Z,8.83
2023-03-26T04:56:14.603Z,12.13
2023-03-26T04:58:41.591Z,15.70
2023-03-26T05:01:11.333Z,12.50
2023-03-26T05:03:41.496Z,10.20
2023-03-26T05:06:10.845Z,9.97
2023-03-26T05:08:37.512Z,15.77
2023-03-26T05:11:07.600Z,10.97
2023-03-26T05:13:34.255Z,10.63
2023-03-26T05:16:00.969Z,9.47
2023-03-26T05:18:27.728Z,10.23
2023-03-26T05:20:54.800Z,11.17
2023-03-26T05:23:21.613Z,10.20
2023-03-26T05:25:48.335Z,10.50
2023-03-26T05:28:15.215Z,10.27
2023-03-26T05:30:43.695Z,11.37
2023-03-26T05:33:10.827Z,9.67
2023-03-26T05:35:37.700Z,14.20
2023-03-26T05:38:04.579Z,12.57
2023-03-26T05:40:31.267Z,9.50
2023-03-26T05:42:58.046Z,9.80
2023-03-26T05:45:24.737Z,6.63
2023-03-26T05:47:54.354Z,6.83
2023-03-26T05:50:21.082Z,6.17
2023-03-26T05:52:47.783Z,7.00
2023-03-26T05:55:14.582Z,8.90
2023-03-26T05:57:42.176Z,10.87
2023-03-26T06:00:11.060Z,13.93
2023-03-26T06:02:38.145Z,9.30
2023-03-26T06:05:05.413Z,13.20
2023-03-26T06:07:34.083Z,15.27
2023-03-26T06:10:01.165Z,9.03
2023-03-26T06:12:27.866Z,11.63
2023-03-26T06:14:54.519Z,10.77
2023-03-26T06:17:21.238Z,6.87
2023-03-26T06:19:48.148Z,9.33
2023-03-26T06:22:14.816Z,12.50
2023-03-26T06:24:41.461Z,10.17
2023-03-26T06:27:08.106Z,10.87
2023-03-26T06:29:34.818Z,9.50
2023-03-26T06:32:12.464Z,10.87
2023-03-26T06:34:43.396Z,9.73
2023-03-26T06:37:10.107Z,9.27
2023-03-26T06:39:36.756Z,7.87
2023-03-26T06:42:03.481Z,9.97
2023-03-26T06:44:30.160Z,8.27
2023-03-26T06:46:56.851Z,9.70
2023-03-26T06:49:23.589Z,9.83
2023-03-26T06:51:50.443Z,8.90
2023-03-26T06:54:17.127Z,9.07
2023-03-26T06:56:44.010Z,12.63
2023-03-26T06:59:10.681Z,5.70
2023-03-26T07:01:37.389Z,7.17
2023-03-26T07:04:04.155Z,10.33
2023-03-26T07:06:31.048Z,11.17
2023-03-26T07:08:57.760Z,10.10
2023-03-26T07:11:25.762Z,9.80
2023-03-26T07:13:52.673Z,8.47
2023-03-26T07:16:19.530Z,10.57
2023-03-26T07:18:46.328Z,9.03
2023-03-26T07:21:13.422Z,7.27
2023-03-26T07:23:40.403Z,9.73
2023-03-26T07:26:39.519Z,6.87
2023-03-26T07:29:34.614Z,9.53
2023-03-26T07:32:19.239Z,9.00
2023-03-26T07:34:51.041Z,11.77
2023-03-26T07:37:22.125Z,7.30
2023-03-26T07:40:14.695Z,10.00
2023-03-26T07:43:03.993Z,9.03
2023-03-26T07:45:34.033Z,9.47
2023-03-26T07:48:01.197Z,12.60
2023-03-26T07:50:27.993Z,9.20
2023-03-26T07:52:54.980Z,10.83
2023-03-26T07:55:22.580Z,7.40
2023-03-26T07:58:01.913Z,12.07
2023-03-26T08:00:35.607Z,9.77
2023-03-26T08:03:11.928Z,8.20
2023-03-26T08:06:19.883Z,7.90
2023-03-26T08:08:58.793Z,6.80
2023-03-26T08:11:43.868Z,10.93
2023-03-26T08:14:17.593Z,7.40
2023-03-26T08:17:12.001Z,8.37
2023-03-26T08:19:58.337Z,12.73
2023-03-26T08:22:31.998Z,8.70
2023-03-26T08:25:33.542Z,6.30
2023-03-26T08:28:12.442Z,9.20
2023-03-26T08:30:39.260Z,8.30
2023-03-26T08:33:11.443Z,6.37
2023-03-26T08:35:42.660Z,10.13
2023-03-26T08:38:14.556Z,9.23
2023-03-26T08:41:08.999Z,7.90
2023-03-26T08:43:41.706Z,6.00
2023-03-26T08:46:14.342Z,11.20
2023-03-26T08:49:08.896Z,7.67
2023-03-26T08:52:20.379Z,9.50
2023-03-26T08:55:06.335Z,6.57
2023-03-26T08:57:49.317Z,6.60
2023-03-26T09:00:34.047Z,6.00
2023-03-26T09:03:22.190Z,4.93
2023-03-26T09:06:01.628Z,6.37
2023-03-26T09:08:59.420Z,6.40
2023-03-26T09:11:53.516Z,7.03
2023-03-26T09:14:41.947Z,4.47
2023-03-26T09:17:37.594Z,5.23
2023-03-26T09:20:56.958Z,6.83
2023-03-26T09:23:57.661Z,9.67
2023-03-26T09:26:25.010Z,7.87
2023-03-26T09:29:08.609Z,6.47
2023-03-26T09:31:58.369Z,5.47
2023-03-26T09:34:37.318Z,5.13
2023-03-26T09:37:22.283Z,6.87
2023-03-26T09:40:19.760Z,6.17
2023-03-26T09:42:56.930Z,4.20
2023-03-26T09:45:46.472Z,5.07
2023-03-26T09:48:38.885Z,4.07
2023-03-26T09:51:26.109Z,4.23
2023-03-26T09:54:23.748Z,7.87
2023-03-26T09:57:16.653Z,5.40
2023-03-26T10:00:34.791Z,12.60
2023-03-26T10:03:49.799Z,6.30
2023-03-26T10:06:33.687Z,3.33
2023-03-26T10:09:23.256Z,4.87
2023-03-26T10:11:49.930Z,2.20
2023-03-26T10:14:17.926Z,3.20
2023-03-26T10:17:03.499Z,2.63
2023-03-26T10:19:49.247Z,4.43
2023-03-26T10:22:47.204Z,3.53
2023-03-26T10:25:33.027Z,2.13
2023-03-26T10:28:08.855Z,3.43
2023-03-26T10:31:13.262Z,2.53
2023-03-26T10:34:00.441Z,2.53
2023-03-26T10:36:37.238Z,3.83
2023-03-26T10:39:37.874Z,3.37
2023-03-26T10:42:28.229Z,4.67
2023-03-26T10:45:04.753Z,2.80
2023-03-26T10:48:08.061Z,3.73
2023-03-26T10:50:40.779Z,1.77
2023-03-26T10:53:12.964Z,1.80
2023-03-26T10:55:41.164Z,1.87
2023-03-26T10:58:27.778Z,3.50
2023-03-26T11:01:05.905Z,1.37
2023-03-26T11:03:52.284Z,1.10
2023-03-26T11:06:34.046Z,1.23
2023-03-26T11:09:43.384Z,1.93
2023-03-26T11:12:34.763Z,2.33
2023-03-26T11:15:32.088Z,1.60
2023-03-26T11:18:14.147Z,2.67
2023-03-26T11:20:48.837Z,1.93
2023-03-26T11:23:27.147Z,2.83
2023-03-26T11:26:07.790Z,2.17
2023-03-26T11:29:03.873Z,1.07
2023-03-26T11:31:57.605Z,2.13
2023-03-26T11:34:38.155Z,2.80
2023-03-26T11:37:09.371Z,1.90
2023-03-26T11:39:46.320Z,1.40
2023-03-26T11:42:14.691Z,1.37
2023-03-26T11:44:50.646Z,0.93
2023-03-26T11:47:23.186Z,1.43
2023-03-26T11:49:51.995Z,1.93
2023-03-26T11:52:18.914Z,1.23
2023-03-26T11:54:48.674Z,1.27
2023-03-26T11:57:21.621Z,0.90
2023-03-26T11:59:57.556Z,1.13
2023-03-26T12:02:35.961Z,1.37
2023-03-26T12:05:15.177Z,1.47
2023-03-26T12:08:04.489Z,1.27
2023-03-26T12:10:39.294Z,1.43
2023-03-26T12:13:19.409Z,0.97
2023-03-26T12:15:46.193Z,1.67
2023-03-26T12:18:25.469Z,1.27
2023-03-26T12:21:05.942Z,1.23
2023-03-26T12:23:44.665Z,0.90
2023-03-26T12:26:15.618Z,1.27
2023-03-26T12:28:47.499Z,0.77
2023-03-26T12:31:18.466Z,1.00
2023-03-26T12:33:52.722Z,1.20
2023-03-26T12:36:29.452Z,1.93
2023-03-26T12:39:16.656Z,1.10
2023-03-26T12:44:42.960Z,2.10
2023-03-26T12:44:47.214Z,1.20
2023-03-26T12:47:59.070Z,1.13
2023-03-26T12:50:15.283Z,1.30
2023-03-26T12:52:48.288Z,2.53
2023-03-26T12:55:21.866Z,1.83
2023-03-26T12:58:38.565Z,1.50
2023-03-26T13:01:16.257Z,0.97
2023-03-26T13:04:35.768Z,0.90
2023-03-26T13:07:22.510Z,1.10
2023-03-26T13:10:17.075Z,1.30
2023-03-26T13:12:54.183Z,1.63
2023-03-26T13:15:24.706Z,2.47
2023-03-26T13:18:04.179Z,0.63
2023-03-26T13:20:40.306Z,1.20
2023-03-26T13:23:42.883Z,1.20
2023-03-26T13:26:40.288Z,0.97
2023-03-26T13:29:19.048Z,2.97
2023-03-26T13:31:58.999Z,0.90
2023-03-26T13:34:28.596Z,1.20
2023-03-26T13:37:13.676Z,1.17
2023-03-26T13:39:50.368Z,1.20
2023-03-26T13:42:33.877Z,0.97
2023-03-26T13:45:12.430Z,0.80
2023-03-26T13:47:49.688Z,1.27
2023-03-26T13:50:26.631Z,1.20
2023-03-26T13:52:59.659Z,1.50
2023-03-26T13:55:48.766Z,1.77
2023-03-26T13:58:38.340Z,1.67
2023-03-26T14:01:12.693Z,1.40
2023-03-26T14:04:00.811Z,2.13
2023-03-26T14:06:36.550Z,3.13
2023-03-26T14:09:24.782Z,2.30
2023-03-26T14:11:58.077Z,2.57
2023-03-26T14:14:34.388Z,1.90
2023-03-26T14:17:11.060Z,3.47
2023-03-26T14:20:02.190Z,4.90
2023-03-26T14:23:07.707Z,3.00
2023-03-26T14:25:50.607Z,2.37
2023-03-26T14:28:54.004Z,3.83
2023-03-26T14:31:42.616Z,3.13
2023-03-26T14:34:40.023Z,3.43
2023-03-26T14:37:17.322Z,2.27
2023-03-26T14:40:22.494Z,2.00
2023-03-26T14:43:27.372Z,1.87
2023-03-26T14:46:06.593Z,2.43
2023-03-26T14:49:01.247Z,1.97
2023-03-26T14:51:46.662Z,1.60
2023-03-26T14:54:17.221Z,1.70
2023-03-26T14:56:53.583Z,2.00
2023-03-26T14:59:26.338Z,1.70
2023-03-26T15:02:17.725Z,1.97
2023-03-26T15:05:03.266Z,2.03
2023-03-26T15:07:53.149Z,2.13
2023-03-26T15:10:49.886Z,2.07
2023-03-26T15:13:42.081Z,1.77
2023-03-26T15:16:17.834Z,1.53
2023-03-26T15:18:51.380Z,1.77
2023-03-26T15:21:33.349Z,2.07
2023-03-26T15:24:32.741Z,1.77
2023-03-26T15:27:30.655Z,1.80
2023-03-26T15:30:18.560Z,2.17
2023-03-26T15:33:01.533Z,2.10
2023-03-26T15:35:57.582Z,2.40
2023-03-26T15:38:52.200Z,2.03
2023-03-26T15:41:43.764Z,2.13
2023-03-26T15:44:50.879Z,2.00
2023-03-26T15:47:33.671Z,1.80
2023-03-26T15:50:16.412Z,2.50
2023-03-26T15:53:02.945Z,4.50
2023-03-26T15:55:55.214Z,2.37
2023-03-26T15:58:26.553Z,4.63
2023-03-26T16:01:10.375Z,3.00
2023-03-26T16:03:48.507Z,2.90
2023-03-26T16:06:50.282Z,4.20
2023-03-26T16:09:54.430Z,5.87
2023-03-26T16:12:27.821Z,4.70
2023-03-26T16:15:07.554Z,10.83
2023-03-26T16:18:19.332Z,8.03
2023-03-26T16:20:57.382Z,10.47
2023-03-26T16:23:29.758Z,10.77
2023-03-26T16:26:06.100Z,14.33
2023-03-26T16:28:56.520Z,5.57
2023-03-26T16:31:37.156Z,7.90
2023-03-26T16:34:05.446Z,8.93
2023-03-26T16:36:34.811Z,10.77
2023-03-26T16:39:05.074Z,7.83
2023-03-26T16:41:50.372Z,5.63
2023-03-26T16:44:33.150Z,9.33
2023-03-26T16:47:09.198Z,9.60
2023-03-26T16:49:43.705Z,7.07
2023-03-26T16:52:23.840Z,6.53
2023-03-26T16:55:07.429Z,7.23
2023-03-26T16:57:57.264Z,10.97
2023-03-26T17:00:35.899Z,12.47
2023-03-26T17:03:27.466Z,7.73
2023-03-26T17:05:55.218Z,11.60
2023-03-26T17:08:36.407Z,9.93
2023-03-26T17:11:15.992Z,10.37
2023-03-26T17:14:03.837Z,9.40
2023-03-26T17:16:34.263Z,10.63
2023-03-26T17:19:42.370Z,11.23
2023-03-26T17:22:27.992Z,12.43
2023-03-26T17:25:11.886Z,7.23
2023-03-26T17:27:51.332Z,5.57
2023-03-26T17:30:52.641Z,8.37
2023-03-26T17:33:32.891Z,7.03
2023-03-26T17:36:11.881Z,8.07
2023-03-26T17:38:45.336Z,5.83
2023-03-26T17:41:14.705Z,8.33
2023-03-26T17:43:50.869Z,10.90
2023-03-26T17:46:29.471Z,13.17
2023-03-26T17:49:17.613Z,5.83
2023-03-26T17:52:06.147Z,8.50
2023-03-26T17:54:50.682Z,7.63
2023-03-26T17:57:23.502Z,6.50
2023-03-26T17:59:53.597Z,7.20
2023-03-26T18:02:24.170Z,6.70
2023-03-26T18:04:53.824Z,12.20
2023-03-26T18:07:58.177Z,8.13
2023-03-26T18:13:47.929Z,8.57
2023-03-26T18:16:18.619Z,5.63
2023-03-26T18:18:52.212Z,7.93
2023-03-26T18:21:33.693Z,7.47
2023-03-26T18:24:02.112Z,8.67
2023-03-26T18:26:42.257Z,8.97
2023-03-26T18:29:21.450Z,8.77
2023-03-26T18:31:50.063Z,6.10
2023-03-26T18:34:20.746Z,7.00
2023-03-26T18:36:58.077Z,8.17
2023-03-26T18:39:24.772Z,9.27
2023-03-26T18:41:51.454Z,6.70
2023-03-26T18:44:18.949Z,6.30
2023-03-26T18:46:45.918Z,5.77
2023-03-26T18:49:14.243Z,7.17
2023-03-26T18:51:54.099Z,8.00
2023-03-26T18:54:23.703Z,7.27
2023-03-26T18:56:52.464Z,7.90
2023-03-26T18:59:28.416Z,6.90
2023-03-26T19:01:59.257Z,6.43
2023-03-26T19:04:27.014Z,12.27
2023-03-26T19:06:55.237Z,7.60
2023-03-26T19:09:31.688Z,10.83
2023-03-26T19:12:06.290Z,5.40
2023-03-26T19:14:37.122Z,7.27
2023-03-26T19:17:05.800Z,6.93
2023-03-26T19:19:36.976Z,5.60
2023-03-26T19:22:07.847Z,9.03
2023-03-26T19:24:34.661Z,9.03
2023-03-26T19:27:01.566Z,6.20
2023-03-26T19:29:32.101Z,8.70
2023-03-26T19:32:23.236Z,7.47
2023-03-26T19:34:53.564Z,9.23
2023-03-26T19:37:26.595Z,8.97
2023-03-26T19:39:55.570Z,9.33
2023-03-26T19:42:43.353Z,7.07
2023-03-26T19:45:21.958Z,8.00
2023-03-26T19:48:00.090Z,7.03
2023-03-26T19:50:33.878Z,7.33
2023-03-26T19:53:19.600Z,10.77
2023-03-26T19:56:12.000Z,7.77
2023-03-26T19:58:39.883Z,7.67
2023-03-26T20:01:07.035Z,6.47
2023-03-26T20:03:40.880Z,5.10
2023-03-26T20:06:12.119Z,7.10
2023-03-26T20:08:40.716Z,7.33
2023-03-26T20:11:15.159Z,10.33
2023-03-26T20:13:41.848Z,3.97
2023-03-26T20:16:29.292Z,7.87
2023-03-26T20:18:57.985Z,11.17
2023-03-26T20:21:25.571Z,5.23
2023-03-26T20:23:53.980Z,7.60
2023-03-26T20:26:22.081Z,9.77
2023-03-26T20:31:25.408Z,8.80
2023-03-26T20:33:53.526Z,9.20
2023-03-26T20:36:33.819Z,4.93
2023-03-26T20:39:06.320Z,6.17
2023-03-26T20:41:34.033Z,6.80
2023-03-26T20:44:01.155Z,8.97
2023-03-26T20:46:31.221Z,6.47
2023-03-26T20:48:59.931Z,6.80
2023-03-26T20:51:28.972Z,6.87
2023-03-26T20:53:56.153Z,6.57
2023-03-26T20:56:22.961Z,4.10
2023-03-26T20:58:54.729Z,6.37
2023-03-26T21:01:27.972Z,6.47
2023-03-26T21:03:54.930Z,8.93
2023-03-26T21:06:21.618Z,5.67
2023-03-26T21:08:48.680Z,8.37
2023-03-26T21:11:26.878Z,8.83
2023-03-26T21:14:08.195Z,11.13
2023-03-26T21:16:35.481Z,8.57
2023-03-26T21:19:03.580Z,6.40
2023-03-26T21:21:59.141Z,6.93
2023-03-26T21:24:37.118Z,4.67
2023-03-26T21:27:36.244Z,6.33
2023-03-26T21:30:06.549Z,9.60
2023-03-26T21:32:34.418Z,6.17
2023-03-26T21:35:03.494Z,6.73
2023-03-26T21:37:31.215Z,7.97
2023-03-26T21:39:59.995Z,5.60
2023-03-26T21:42:31.988Z,8.03
2023-03-26T21:44:59.063Z,8.50
2023-03-26T21:47:26.078Z,5.97
2023-03-26T21:49:54.840Z,6.97
2023-03-26T21:52:22.784Z,6.87
2023-03-26T21:54:49.780Z,7.27
2023-03-26T21:57:32.050Z,5.73
2023-03-26T22:00:16.428Z,6.17
2023-03-26T22:03:09.137Z,5.60
2023-03-26T22:05:59.943Z,7.97
2023-03-26T22:08:32.864Z,7.17
2023-03-26T22:11:00.048Z,6.43
2023-03-26T22:13:27.611Z,7.87
2023-03-26T22:15:54.664Z,9.30
2023-03-26T22:18:21.666Z,4.83
2023-03-26T22:20:49.184Z,9.27
2023-03-26T22:23:17.050Z,6.87
2023-03-26T22:25:44.139Z,8.60
2023-03-26T22:28:10.944Z,5.87
2023-03-26T22:30:37.772Z,8.73
2023-03-26T22:33:05.543Z,9.03
2023-03-26T22:35:32.362Z,9.70
2023-03-26T22:38:00.438Z,9.43
2023-03-26T22:40:28.690Z,10.07
2023-03-26T22:42:55.430Z,6.30
2023-03-26T22:45:23.100Z,6.90
2023-03-26T22:47:50.106Z,13.37
2023-03-26T22:50:16.911Z,7.53
2023-03-26T22:52:43.644Z,10.30
2023-03-26T22:55:11.794Z,10.37
2023-03-26T22:57:39.766Z,12.10
2023-03-26T23:00:19.225Z,7.93
2023-03-26T23:02:46.872Z,9.93
2023-03-26T23:05:14.854Z,9.93
2023-03-26T23:07:42.654Z,9.70
2023-03-26T23:10:11.312Z,9.53
2023-03-26T23:12:39.199Z,8.10
2023-03-26T23:15:06.571Z,4.80
2023-03-26T23:17:35.152Z,7.33
2023-03-26T23:20:06.323Z,7.87
2023-03-26T23:22:35.500Z,5.77
2023-03-26T23:25:02.404Z,9.07
2023-03-26T23:27:29.182Z,8.57
2023-03-26T23:29:56.060Z,3.80
2023-03-26T23:32:25.346Z,8.03
2023-03-26T23:34:52.536Z,8.23
2023-03-26T23:37:23.522Z,6.07
2023-03-26T23:39:51.068Z,5.30
2023-03-26T23:42:28.361Z,6.23
2023-03-26T23:44:57.275Z,7.90
2023-03-26T23:47:24.346Z,8.40
2023-03-26T23:49:51.343Z,8.60
2023-03-26T23:52:18.443Z,3.13
2023-03-26T23:54:45.818Z,8.57
2023-03-26T23:57:12.675Z,3.73
2023-03-26T23:59:41.707Z,7.53
